Ephesus, Georgia
Current Conditions -  °F | °C
As of 8:55 AM on Saturday 22 Nov 2014 (Local Time) from KCCO Reporting Station
Clear Clear  
Wind Chill: 37°   Ceiling: Unl
Heat Index: 43°   Visibility: 10mi
Dew Point: 34°   Wind: 10mph
Humidity: 72%   Direction: 100°E
Pressure: 30.44"   Gusts: NA
Location:  33.4261°N, 85.1637°W
Report Text: KCCO 221355Z AUTO 10009KT 10SM CLR 06/01 A3044 RMK AO2 T00610013
Loading
Personal Weather Stations






























Interactive Weather Map New forecast layout! Learn more

10-Day Weather Forecast

Advertisements
Track Severe Weather on mobile